sensor_id;sensor_type;location;lat;lon;timestamp;temperature;humidity
22558;DHT22;11445;53.816;8.902;2024-01-16T00:00:43;-0.20;99.90
22558;DHT22;11445;53.816;8.902;2024-01-16T00:03:10;-0.20;99.90
22558;DHT22;11445;53.816;8.902;2024-01-16T00:05:38;-0.10;99.90
22558;DHT22;11445;53.816;8.902;2024-01-16T00:08:05;-0.10;99.90
22558;DHT22;11445;53.816;8.902;2024-01-16T00:10:32;0.00;99.90
22558;DHT22;11445;53.816;8.902;2024-01-16T00:12:59;0.00;99.90
22558;DHT22;11445;53.816;8.902;2024-01-16T00:15:26;0.10;99.90
22558;DHT22;11445;53.816;8.902;2024-01-16T00:17:52;0.10;99.90
22558;DHT22;11445;53.816;8.902;2024-01-16T00:20:19;0.10;99.90
22558;DHT22;11445;53.816;8.902;2024-01-16T00:22:48;0.10;99.90
22558;DHT22;11445;53.816;8.902;2024-01-16T00:25:15;0.10;99.90
22558;DHT22;11445;53.816;8.902;2024-01-16T00:27:45;0.10;99.90
22558;DHT22;11445;53.816;8.902;2024-01-16T00:30:12;0.10;99.90
22558;DHT22;11445;53.816;8.902;2024-01-16T00:32:40;0.10;99.90
22558;DHT22;11445;53.816;8.902;2024-01-16T00:35:07;0.10;99.90
22558;DHT22;11445;53.816;8.902;2024-01-16T00:37:35;0.10;99.90
22558;DHT22;11445;53.816;8.902;2024-01-16T00:40:04;0.10;99.90
22558;DHT22;11445;53.816;8.902;2024-01-16T00:42:31;0.10;99.90
22558;DHT22;11445;53.816;8.902;2024-01-16T00:44:58;0.10;99.90
22558;DHT22;11445;53.816;8.902;2024-01-16T00:47:25;0.00;99.90
22558;DHT22;11445;53.816;8.902;2024-01-16T00:49:51;0.10;99.90
22558;DHT22;11445;53.816;8.902;2024-01-16T00:52:18;0.00;99.90
22558;DHT22;11445;53.816;8.902;2024-01-16T00:54:45;0.10;99.90
22558;DHT22;11445;53.816;8.902;2024-01-16T00:57:13;0.10;99.90
22558;DHT22;11445;53.816;8.902;2024-01-16T00:59:41;0.00;99.90
22558;DHT22;11445;53.816;8.902;2024-01-16T01:02:08;0.00;99.90
22558;DHT22;11445;53.816;8.902;2024-01-16T01:04:37;-0.10;99.90
22558;DHT22;11445;53.816;8.902;2024-01-16T01:07:04;-0.10;99.90
22558;DHT22;11445;53.816;8.902;2024-01-16T01:09:32;-0.10;99.90
22558;DHT22;11445;53.816;8.902;2024-01-16T01:11:59;-0.20;99.90
22558;DHT22;11445;53.816;8.902;2024-01-16T01:14:27;-0.30;99.90
22558;DHT22;11445;53.816;8.902;2024-01-16T01:16:55;-0.30;99.90
22558;DHT22;11445;53.816;8.902;2024-01-16T01:19:22;-0.40;99.90
22558;DHT22;11445;53.816;8.902;2024-01-16T01:21:49;-0.50;99.90
22558;DHT22;11445;53.816;8.902;2024-01-16T01:24:16;-0.60;99.90
22558;DHT22;11445;53.816;8.902;2024-01-16T01:26:43;-0.60;99.90
22558;DHT22;11445;53.816;8.902;2024-01-16T01:29:10;-0.60;99.90
22558;DHT22;11445;53.816;8.902;2024-01-16T01:31:38;-0.60;99.90
22558;DHT22;11445;53.816;8.902;2024-01-16T01:34:04;-0.60;99.90
22558;DHT22;11445;53.816;8.902;2024-01-16T01:36:32;-0.70;99.90
22558;DHT22;11445;53.816;8.902;2024-01-16T01:38:59;-0.70;99.90
22558;DHT22;11445;53.816;8.902;2024-01-16T01:41:26;-0.70;99.90
22558;DHT22;11445;53.816;8.902;2024-01-16T01:43:53;-0.80;99.90
22558;DHT22;11445;53.816;8.902;2024-01-16T01:46:23;-0.80;99.90
22558;DHT22;11445;53.816;8.902;2024-01-16T01:48:51;-0.80;99.90
22558;DHT22;11445;53.816;8.902;2024-01-16T01:51:19;-0.70;99.90
22558;DHT22;11445;53.816;8.902;2024-01-16T01:53:48;-0.70;99.90
22558;DHT22;11445;53.816;8.902;2024-01-16T01:56:18;-0.70;99.90
22558;DHT22;11445;53.816;8.902;2024-01-16T01:58:46;-0.60;99.90
22558;DHT22;11445;53.816;8.902;2024-01-16T02:01:15;-0.70;99.90
22558;DHT22;11445;53.816;8.902;2024-01-16T02:03:43;-0.60;99.90
22558;DHT22;11445;53.816;8.902;2024-01-16T02:06:12;-0.60;99.90
22558;DHT22;11445;53.816;8.902;2024-01-16T02:08:41;-0.50;99.90
22558;DHT22;11445;53.816;8.902;2024-01-16T02:11:08;-0.50;99.90
22558;DHT22;11445;53.816;8.902;2024-01-16T02:13:35;-0.50;99.90
22558;DHT22;11445;53.816;8.902;2024-01-16T02:16:02;-0.50;99.90
22558;DHT22;11445;53.816;8.902;2024-01-16T02:18:31;-0.50;99.90
22558;DHT22;11445;53.816;8.902;2024-01-16T02:21:00;-0.50;99.90
22558;DHT22;11445;53.816;8.902;2024-01-16T02:23:29;-0.50;99.90
22558;DHT22;11445;53.816;8.902;2024-01-16T02:25:57;-0.60;99.90
22558;DHT22;11445;53.816;8.902;2024-01-16T02:28:24;-0.60;99.90
22558;DHT22;11445;53.816;8.902;2024-01-16T02:30:51;-0.70;99.90
22558;DHT22;11445;53.816;8.902;2024-01-16T02:33:18;-0.80;99.90
22558;DHT22;11445;53.816;8.902;2024-01-16T02:35:44;-0.80;99.90
22558;DHT22;11445;53.816;8.902;2024-01-16T02:38:11;-0.90;99.90
22558;DHT22;11445;53.816;8.902;2024-01-16T02:40:39;-0.90;99.90
22558;DHT22;11445;53.816;8.902;2024-01-16T02:43:07;-1.00;99.90
22558;DHT22;11445;53.816;8.902;2024-01-16T02:45:33;-1.00;99.90
22558;DHT22;11445;53.816;8.902;2024-01-16T02:48:00;-1.00;99.90
22558;DHT22;11445;53.816;8.902;2024-01-16T02:50:29;-1.10;99.90
22558;DHT22;11445;53.816;8.902;2024-01-16T02:52:55;-1.20;99.90
22558;DHT22;11445;53.816;8.902;2024-01-16T02:55:22;-1.30;99.90
22558;DHT22;11445;53.816;8.902;2024-01-16T02:57:50;-1.30;99.90
22558;DHT22;11445;53.816;8.902;2024-01-16T03:00:17;-1.30;99.90
22558;DHT22;11445;53.816;8.902;2024-01-16T03:02:44;-1.30;99.90
22558;DHT22;11445;53.816;8.902;2024-01-16T03:05:11;-1.30;99.90
22558;DHT22;11445;53.816;8.902;2024-01-16T03:07:38;-1.40;99.90
22558;DHT22;11445;53.816;8.902;2024-01-16T03:10:05;-1.40;99.90
22558;DHT22;11445;53.816;8.902;2024-01-16T03:12:32;-1.40;99.90
22558;DHT22;11445;53.816;8.902;2024-01-16T03:15:00;-1.50;99.90
22558;DHT22;11445;53.816;8.902;2024-01-16T03:17:27;-1.50;99.90
22558;DHT22;11445;53.816;8.902;2024-01-16T03:19:54;-1.50;99.90
22558;DHT22;11445;53.816;8.902;2024-01-16T03:22:21;-1.60;99.90
22558;DHT22;11445;53.816;8.902;2024-01-16T03:24:48;-1.60;99.90
22558;DHT22;11445;53.816;8.902;2024-01-16T03:27:15;-1.60;99.90
22558;DHT22;11445;53.816;8.902;2024-01-16T03:29:45;-1.50;99.90
22558;DHT22;11445;53.816;8.902;2024-01-16T03:32:13;-1.60;99.90
22558;DHT22;11445;53.816;8.902;2024-01-16T03:34:40;-1.60;99.90
22558;DHT22;11445;53.816;8.902;2024-01-16T03:37:07;-1.60;99.90
22558;DHT22;11445;53.816;8.902;2024-01-16T03:39:34;-1.60;99.90
22558;DHT22;11445;53.816;8.902;2024-01-16T03:42:01;-1.60;99.90
22558;DHT22;11445;53.816;8.902;2024-01-16T03:44:28;-1.60;99.90
22558;DHT22;11445;53.816;8.902;2024-01-16T03:46:54;-1.60;99.90
22558;DHT22;11445;53.816;8.902;2024-01-16T03:49:22;-1.60;99.90
22558;DHT22;11445;53.816;8.902;2024-01-16T03:51:50;-1.60;99.90
22558;DHT22;11445;53.816;8.902;2024-01-16T03:54:17;-1.60;99.90
22558;DHT22;11445;53.816;8.902;2024-01-16T03:56:44;-1.50;99.90
22558;DHT22;11445;53.816;8.902;2024-01-16T03:59:12;-1.50;99.90
22558;DHT22;11445;53.816;8.902;2024-01-16T04:01:39;-1.50;99.90
22558;DHT22;11445;53.816;8.902;2024-01-16T04:04:06;-1.40;99.90
22558;DHT22;11445;53.816;8.902;2024-01-16T04:06:34;-1.40;99.90
22558;DHT22;11445;53.816;8.902;2024-01-16T04:09:01;-1.40;99.90
22558;DHT22;11445;53.816;8.902;2024-01-16T04:11:28;-1.40;99.90
22558;DHT22;11445;53.816;8.902;2024-01-16T04:13:55;-1.40;99.90
22558;DHT22;11445;53.816;8.902;2024-01-16T04:16:22;-1.40;99.90
22558;DHT22;11445;53.816;8.902;2024-01-16T04:18:49;-1.50;99.90
22558;DHT22;11445;53.816;8.902;2024-01-16T04:21:16;-1.50;99.90
22558;DHT22;11445;53.816;8.902;2024-01-16T04:23:44;-1.60;99.90
22558;DHT22;11445;53.816;8.902;2024-01-16T04:26:11;-1.50;99.90
22558;DHT22;11445;53.816;8.902;2024-01-16T04:28:38;-1.50;99.90
22558;DHT22;11445;53.816;8.902;2024-01-16T04:31:05;-1.60;99.90
22558;DHT22;11445;53.816;8.902;2024-01-16T04:33:32;-1.60;99.90
22558;DHT22;11445;53.816;8.902;2024-01-16T04:35:59;-1.50;99.90
22558;DHT22;11445;53.816;8.902;2024-01-16T04:38:26;-1.50;99.90
22558;DHT22;11445;53.816;8.902;2024-01-16T04:40:54;-1.50;99.90
22558;DHT22;11445;53.816;8.902;2024-01-16T04:43:21;-1.50;99.90
22558;DHT22;11445;53.816;8.902;2024-01-16T04:45:48;-1.40;99.90
22558;DHT22;11445;53.816;8.902;2024-01-16T04:48:14;-1.30;99.90
22558;DHT22;11445;53.816;8.902;2024-01-16T04:50:41;-1.20;99.90
22558;DHT22;11445;53.816;8.902;2024-01-16T04:53:08;-1.10;99.90
22558;DHT22;11445;53.816;8.902;2024-01-16T04:55:35;-1.00;99.90
22558;DHT22;11445;53.816;8.902;2024-01-16T04:58:04;-0.90;99.90
22558;DHT22;11445;53.816;8.902;2024-01-16T05:00:31;-0.90;99.90
22558;DHT22;11445;53.816;8.902;2024-01-16T05:02:58;-0.80;99.90
22558;DHT22;11445;53.816;8.902;2024-01-16T05:05:25;-0.70;99.90
22558;DHT22;11445;53.816;8.902;2024-01-16T05:07:52;-0.60;99.90
22558;DHT22;11445;53.816;8.902;2024-01-16T05:10:19;-0.60;99.90
22558;DHT22;11445;53.816;8.902;2024-01-16T05:12:46;-0.50;99.90
22558;DHT22;11445;53.816;8.902;2024-01-16T05:15:14;-0.40;99.90
22558;DHT22;11445;53.816;8.902;2024-01-16T05:17:40;-0.40;99.90
22558;DHT22;11445;53.816;8.902;2024-01-16T05:20:08;-0.30;99.90
22558;DHT22;11445;53.816;8.902;2024-01-16T05:22:36;-0.30;99.90
22558;DHT22;11445;53.816;8.902;2024-01-16T05:25:04;-0.30;99.90
22558;DHT22;11445;53.816;8.902;2024-01-16T05:27:32;-0.20;99.90
22558;DHT22;11445;53.816;8.902;2024-01-16T05:29:59;-0.20;99.90
22558;DHT22;11445;53.816;8.902;2024-01-16T05:32:28;-0.20;99.90
22558;DHT22;11445;53.816;8.902;2024-01-16T05:34:54;-0.20;99.90
22558;DHT22;11445;53.816;8.902;2024-01-16T05:37:21;-0.10;99.90
22558;DHT22;11445;53.816;8.902;2024-01-16T05:39:48;-0.10;99.90
22558;DHT22;11445;53.816;8.902;2024-01-16T05:42:15;-0.10;99.90
22558;DHT22;11445;53.816;8.902;2024-01-16T05:44:43;0.00;99.90
22558;DHT22;11445;53.816;8.902;2024-01-16T05:47:09;0.10;99.90
22558;DHT22;11445;53.816;8.902;2024-01-16T05:49:38;0.10;99.90
22558;DHT22;11445;53.816;8.902;2024-01-16T05:52:07;0.20;99.90
22558;DHT22;11445;53.816;8.902;2024-01-16T05:54:34;0.20;99.90
22558;DHT22;11445;53.816;8.902;2024-01-16T05:57:01;0.20;99.90
22558;DHT22;11445;53.816;8.902;2024-01-16T05:59:28;0.30;99.90
22558;DHT22;11445;53.816;8.902;2024-01-16T06:01:55;0.90;99.90
22558;DHT22;11445;53.816;8.902;2024-01-16T06:04:21;0.80;99.90
22558;DHT22;11445;53.816;8.902;2024-01-16T06:06:50;0.70;99.90
22558;DHT22;11445;53.816;8.902;2024-01-16T06:09:16;0.60;99.90
22558;DHT22;11445;53.816;8.902;2024-01-16T06:11:44;0.40;99.90
22558;DHT22;11445;53.816;8.902;2024-01-16T06:14:11;0.40;99.90
22558;DHT22;11445;53.816;8.902;2024-01-16T06:16:38;0.40;99.90
22558;DHT22;11445;53.816;8.902;2024-01-16T06:19:05;0.40;99.90
22558;DHT22;11445;53.816;8.902;2024-01-16T06:21:33;0.40;99.90
22558;DHT22;11445;53.816;8.902;2024-01-16T06:24:01;0.30;99.90
22558;DHT22;11445;53.816;8.902;2024-01-16T06:26:28;0.30;99.90
22558;DHT22;11445;53.816;8.902;2024-01-16T06:28:55;0.30;99.90
22558;DHT22;11445;53.816;8.902;2024-01-16T06:31:22;0.30;99.90
22558;DHT22;11445;53.816;8.902;2024-01-16T06:33:49;0.30;99.90
22558;DHT22;11445;53.816;8.902;2024-01-16T06:36:16;0.30;99.90
22558;DHT22;11445;53.816;8.902;2024-01-16T06:38:43;0.20;99.90
22558;DHT22;11445;53.816;8.902;2024-01-16T06:41:11;0.20;99.90
22558;DHT22;11445;53.816;8.902;2024-01-16T06:43:38;0.10;99.90
22558;DHT22;11445;53.816;8.902;2024-01-16T06:46:05;0.10;99.90
22558;DHT22;11445;53.816;8.902;2024-01-16T06:48:34;0.10;99.90
22558;DHT22;11445;53.816;8.902;2024-01-16T06:51:02;0.30;99.90
22558;DHT22;11445;53.816;8.902;2024-01-16T06:53:29;0.30;99.90
22558;DHT22;11445;53.816;8.902;2024-01-16T06:55:55;0.30;99.90
22558;DHT22;11445;53.816;8.902;2024-01-16T06:58:24;0.20;99.90
22558;DHT22;11445;53.816;8.902;2024-01-16T07:00:50;0.20;99.90
22558;DHT22;11445;53.816;8.902;2024-01-16T07:03:17;0.10;99.90
22558;DHT22;11445;53.816;8.902;2024-01-16T07:05:44;0.20;99.90
22558;DHT22;11445;53.816;8.902;2024-01-16T07:08:11;0.20;99.90
22558;DHT22;11445;53.816;8.902;2024-01-16T07:10:38;0.30;99.90
22558;DHT22;11445;53.816;8.902;2024-01-16T07:13:05;0.30;99.90
22558;DHT22;11445;53.816;8.902;2024-01-16T07:15:34;0.40;99.90
22558;DHT22;11445;53.816;8.902;2024-01-16T07:18:01;0.40;99.90
22558;DHT22;11445;53.816;8.902;2024-01-16T07:20:27;0.50;99.90
22558;DHT22;11445;53.816;8.902;2024-01-16T07:22:54;0.50;99.90
22558;DHT22;11445;53.816;8.902;2024-01-16T07:25:21;0.50;99.90
22558;DHT22;11445;53.816;8.902;2024-01-16T07:27:48;0.50;99.90
22558;DHT22;11445;53.816;8.902;2024-01-16T07:30:15;0.60;99.90
22558;DHT22;11445;53.816;8.902;2024-01-16T07:32:44;0.60;99.90
22558;DHT22;11445;53.816;8.902;2024-01-16T07:35:11;0.50;99.90
22558;DHT22;11445;53.816;8.902;2024-01-16T07:37:37;0.50;99.90
22558;DHT22;11445;53.816;8.902;2024-01-16T07:40:05;0.50;99.90
22558;DHT22;11445;53.816;8.902;2024-01-16T07:42:35;0.50;99.90
22558;DHT22;11445;53.816;8.902;2024-01-16T07:45:03;0.50;99.90
22558;DHT22;11445;53.816;8.902;2024-01-16T07:47:30;0.50;99.90
22558;DHT22;11445;53.816;8.902;2024-01-16T07:49:58;0.50;99.90
22558;DHT22;11445;53.816;8.902;2024-01-16T07:52:27;0.40;99.90
22558;DHT22;11445;53.816;8.902;2024-01-16T07:54:54;0.40;99.90
22558;DHT22;11445;53.816;8.902;2024-01-16T07:57:21;0.40;99.90
22558;DHT22;11445;53.816;8.902;2024-01-16T07:59:47;0.40;99.90
22558;DHT22;11445;53.816;8.902;2024-01-16T08:02:14;0.40;99.90
22558;DHT22;11445;53.816;8.902;2024-01-16T08:04:42;0.40;99.90
22558;DHT22;11445;53.816;8.902;2024-01-16T08:07:10;0.40;99.90
22558;DHT22;11445;53.816;8.902;2024-01-16T08:09:37;0.40;99.90
22558;DHT22;11445;53.816;8.902;2024-01-16T08:12:04;0.50;99.90
22558;DHT22;11445;53.816;8.902;2024-01-16T08:14:31;0.40;99.90
22558;DHT22;11445;53.816;8.902;2024-01-16T08:16:58;0.40;99.90
22558;DHT22;11445;53.816;8.902;2024-01-16T08:19:25;0.50;99.90
22558;DHT22;11445;53.816;8.902;2024-01-16T08:21:52;0.50;99.90
22558;DHT22;11445;53.816;8.902;2024-01-16T08:24:20;0.70;99.90
22558;DHT22;11445;53.816;8.902;2024-01-16T08:26:47;0.70;99.90
22558;DHT22;11445;53.816;8.902;2024-01-16T08:29:14;0.70;99.90
22558;DHT22;11445;53.816;8.902;2024-01-16T08:31:40;0.70;99.90
22558;DHT22;11445;53.816;8.902;2024-01-16T08:34:07;0.70;99.90
22558;DHT22;11445;53.816;8.902;2024-01-16T08:36:34;0.60;99.90
22558;DHT22;11445;53.816;8.902;2024-01-16T08:39:01;0.70;99.90
22558;DHT22;11445;53.816;8.902;2024-01-16T08:41:29;0.60;99.90
22558;DHT22;11445;53.816;8.902;2024-01-16T08:43:57;0.60;99.90
22558;DHT22;11445;53.816;8.902;2024-01-16T08:46:24;0.60;99.90
22558;DHT22;11445;53.816;8.902;2024-01-16T08:48:51;0.60;99.90
22558;DHT22;11445;53.816;8.902;2024-01-16T08:51:18;0.60;99.90
22558;DHT22;11445;53.816;8.902;2024-01-16T08:53:44;0.60;99.90
22558;DHT22;11445;53.816;8.902;2024-01-16T08:56:11;0.70;99.90
22558;DHT22;11445;53.816;8.902;2024-01-16T08:58:40;0.90;99.90
22558;DHT22;11445;53.816;8.902;2024-01-16T09:01:07;0.80;99.90
22558;DHT22;11445;53.816;8.902;2024-01-16T09:03:34;0.80;99.90
22558;DHT22;11445;53.816;8.902;2024-01-16T09:06:01;0.80;99.90
22558;DHT22;11445;53.816;8.902;2024-01-16T09:08:28;0.80;99.90
22558;DHT22;11445;53.816;8.902;2024-01-16T09:10:56;0.80;99.90
22558;DHT22;11445;53.816;8.902;2024-01-16T09:13:23;0.80;99.90
22558;DHT22;11445;53.816;8.902;2024-01-16T09:15:51;0.80;99.90
22558;DHT22;11445;53.816;8.902;2024-01-16T09:18:18;0.80;99.90
22558;DHT22;11445;53.816;8.902;2024-01-16T09:20:45;0.90;99.90
22558;DHT22;11445;53.816;8.902;2024-01-16T09:23:13;0.90;99.90
22558;DHT22;11445;53.816;8.902;2024-01-16T09:25:39;0.90;99.90
22558;DHT22;11445;53.816;8.902;2024-01-16T09:28:06;1.00;99.90
22558;DHT22;11445;53.816;8.902;2024-01-16T09:30:33;1.00;99.90
22558;DHT22;11445;53.816;8.902;2024-01-16T09:33:03;1.10;99.90
22558;DHT22;11445;53.816;8.902;2024-01-16T09:35:32;1.10;99.90
22558;DHT22;11445;53.816;8.902;2024-01-16T09:37:59;1.00;99.90
22558;DHT22;11445;53.816;8.902;2024-01-16T09:40:26;1.00;99.90
22558;DHT22;11445;53.816;8.902;2024-01-16T09:42:53;0.90;99.90
22558;DHT22;11445;53.816;8.902;2024-01-16T09:45:20;1.30;99.90
22558;DHT22;11445;53.816;8.902;2024-01-16T09:47:49;1.90;99.90
22558;DHT22;11445;53.816;8.902;2024-01-16T09:50:18;2.40;99.90
22558;DHT22;11445;53.816;8.902;2024-01-16T09:52:45;2.70;99.90
22558;DHT22;11445;53.816;8.902;2024-01-16T09:55:13;2.50;99.90
22558;DHT22;11445;53.816;8.902;2024-01-16T09:57:40;2.40;99.90
22558;DHT22;11445;53.816;8.902;2024-01-16T10:00:09;2.10;99.90
22558;DHT22;11445;53.816;8.902;2024-01-16T10:02:38;1.90;99.90
22558;DHT22;11445;53.816;8.902;2024-01-16T10:05:06;1.80;99.90
22558;DHT22;11445;53.816;8.902;2024-01-16T10:07:36;1.60;99.90
22558;DHT22;11445;53.816;8.902;2024-01-16T10:10:04;1.60;99.90
22558;DHT22;11445;53.816;8.902;2024-01-16T10:12:31;1.50;99.90
22558;DHT22;11445;53.816;8.902;2024-01-16T10:14:58;1.50;99.90
22558;DHT22;11445;53.816;8.902;2024-01-16T10:17:35;1.50;99.90
22558;DHT22;11445;53.816;8.902;2024-01-16T10:20:03;1.40;99.90
22558;DHT22;11445;53.816;8.902;2024-01-16T10:22:31;1.50;99.90
22558;DHT22;11445;53.816;8.902;2024-01-16T10:25:09;1.50;99.90
22558;DHT22;11445;53.816;8.902;2024-01-16T10:27:38;1.50;99.90
22558;DHT22;11445;53.816;8.902;2024-01-16T10:30:06;1.60;99.90
22558;DHT22;11445;53.816;8.902;2024-01-16T10:32:35;1.60;99.90
22558;DHT22;11445;53.816;8.902;2024-01-16T10:35:07;1.60;99.90
22558;DHT22;11445;53.816;8.902;2024-01-16T10:37:42;1.60;99.90
22558;DHT22;11445;53.816;8.902;2024-01-16T10:40:14;1.60;99.90
22558;DHT22;11445;53.816;8.902;2024-01-16T10:42:41;1.70;99.90
22558;DHT22;11445;53.816;8.902;2024-01-16T10:45:08;1.70;99.90
22558;DHT22;11445;53.816;8.902;2024-01-16T10:47:42;1.70;99.90
22558;DHT22;11445;53.816;8.902;2024-01-16T10:50:09;1.80;99.90
22558;DHT22;11445;53.816;8.902;2024-01-16T10:52:44;1.80;99.90
22558;DHT22;11445;53.816;8.902;2024-01-16T10:55:19;1.70;99.90
22558;DHT22;11445;53.816;8.902;2024-01-16T10:57:48;1.70;99.90
22558;DHT22;11445;53.816;8.902;2024-01-16T11:00:18;1.60;99.90
22558;DHT22;11445;53.816;8.902;2024-01-16T11:02:51;1.60;99.90
22558;DHT22;11445;53.816;8.902;2024-01-16T11:05:21;1.60;99.90
22558;DHT22;11445;53.816;8.902;2024-01-16T11:07:50;1.60;99.90
22558;DHT22;11445;53.816;8.902;2024-01-16T11:10:19;1.60;99.90
22558;DHT22;11445;53.816;8.902;2024-01-16T11:12:46;1.70;99.90
22558;DHT22;11445;53.816;8.902;2024-01-16T11:15:14;1.80;99.90
22558;DHT22;11445;53.816;8.902;2024-01-16T11:17:44;1.90;99.90
22558;DHT22;11445;53.816;8.902;2024-01-16T11:20:12;2.00;99.90
22558;DHT22;11445;53.816;8.902;2024-01-16T11:22:42;1.90;99.90
22558;DHT22;11445;53.816;8.902;2024-01-16T11:25:10;1.90;99.90
22558;DHT22;11445;53.816;8.902;2024-01-16T11:27:39;1.90;99.90
22558;DHT22;11445;53.816;8.902;2024-01-16T11:30:07;2.00;99.90
22558;DHT22;11445;53.816;8.902;2024-01-16T11:32:35;2.00;99.90
22558;DHT22;11445;53.816;8.902;2024-01-16T11:35:03;2.00;99.90
22558;DHT22;11445;53.816;8.902;2024-01-16T11:37:32;2.00;99.90
22558;DHT22;11445;53.816;8.902;2024-01-16T11:40:24;2.10;99.90
22558;DHT22;11445;53.816;8.902;2024-01-16T11:42:54;2.10;99.90
22558;DHT22;11445;53.816;8.902;2024-01-16T11:45:52;2.20;99.90
22558;DHT22;11445;53.816;8.902;2024-01-16T11:48:19;2.20;99.90
22558;DHT22;11445;53.816;8.902;2024-01-16T11:50:46;2.20;99.90
22558;DHT22;11445;53.816;8.902;2024-01-16T11:53:36;2.40;99.90
22558;DHT22;11445;53.816;8.902;2024-01-16T11:56:22;2.40;99.90
22558;DHT22;11445;53.816;8.902;2024-01-16T11:59:01;2.30;99.90
22558;DHT22;11445;53.816;8.902;2024-01-16T12:01:32;2.20;99.90
22558;DHT22;11445;53.816;8.902;2024-01-16T12:04:03;2.20;99.90
22558;DHT22;11445;53.816;8.902;2024-01-16T12:06:30;2.10;99.90
22558;DHT22;11445;53.816;8.902;2024-01-16T12:09:11;2.10;99.90
22558;DHT22;11445;53.816;8.902;2024-01-16T12:11:39;2.00;99.90
22558;DHT22;11445;53.816;8.902;2024-01-16T12:14:07;2.00;99.90
22558;DHT22;11445;53.816;8.902;2024-01-16T12:16:34;1.90;99.90
22558;DHT22;11445;53.816;8.902;2024-01-16T12:19:05;1.90;99.90
22558;DHT22;11445;53.816;8.902;2024-01-16T12:21:34;1.90;99.90
22558;DHT22;11445;53.816;8.902;2024-01-16T12:24:01;1.90;99.90
22558;DHT22;11445;53.816;8.902;2024-01-16T12:26:29;1.90;99.90
22558;DHT22;11445;53.816;8.902;2024-01-16T12:28:57;1.90;99.90
22558;DHT22;11445;53.816;8.902;2024-01-16T12:31:27;1.90;99.90
22558;DHT22;11445;53.816;8.902;2024-01-16T12:34:02;1.90;99.90
22558;DHT22;11445;53.816;8.902;2024-01-16T12:36:31;1.90;99.90
22558;DHT22;11445;53.816;8.902;2024-01-16T12:38:57;1.70;99.90
22558;DHT22;11445;53.816;8.902;2024-01-16T12:41:24;1.70;99.90
22558;DHT22;11445;53.816;8.902;2024-01-16T12:43:52;1.70;99.90
22558;DHT22;11445;53.816;8.902;2024-01-16T12:46:19;1.60;99.90
22558;DHT22;11445;53.816;8.902;2024-01-16T12:48:47;1.60;99.90
22558;DHT22;11445;53.816;8.902;2024-01-16T12:51:20;1.60;99.90
22558;DHT22;11445;53.816;8.902;2024-01-16T12:53:47;1.60;99.90
22558;DHT22;11445;53.816;8.902;2024-01-16T12:56:18;1.50;99.90
22558;DHT22;11445;53.816;8.902;2024-01-16T12:58:45;1.50;99.90
22558;DHT22;11445;53.816;8.902;2024-01-16T13:01:30;1.50;99.90
22558;DHT22;11445;53.816;8.902;2024-01-16T13:04:03;1.50;99.90
22558;DHT22;11445;53.816;8.902;2024-01-16T13:06:30;1.50;99.90
22558;DHT22;11445;53.816;8.902;2024-01-16T13:09:05;1.50;99.90
22558;DHT22;11445;53.816;8.902;2024-01-16T13:11:45;1.50;99.90
22558;DHT22;11445;53.816;8.902;2024-01-16T13:14:12;1.50;99.90
22558;DHT22;11445;53.816;8.902;2024-01-16T13:16:39;1.50;99.90
22558;DHT22;11445;53.816;8.902;2024-01-16T13:19:07;1.50;99.90
22558;DHT22;11445;53.816;8.902;2024-01-16T13:21:35;1.70;99.90
22558;DHT22;11445;53.816;8.902;2024-01-16T13:24:02;1.70;99.90
22558;DHT22;11445;53.816;8.902;2024-01-16T13:26:30;1.80;99.90
22558;DHT22;11445;53.816;8.902;2024-01-16T13:28:57;1.70;99.90
22558;DHT22;11445;53.816;8.902;2024-01-16T13:31:24;1.70;99.90
22558;DHT22;11445;53.816;8.902;2024-01-16T13:33:51;1.70;99.90
22558;DHT22;11445;53.816;8.902;2024-01-16T13:36:19;1.60;99.90
22558;DHT22;11445;53.816;8.902;2024-01-16T13:38:47;1.60;99.90
22558;DHT22;11445;53.816;8.902;2024-01-16T13:41:14;1.60;99.90
22558;DHT22;11445;53.816;8.902;2024-01-16T13:43:41;1.60;99.90
22558;DHT22;11445;53.816;8.902;2024-01-16T13:46:08;1.60;99.90
22558;DHT22;11445;53.816;8.902;2024-01-16T13:48:35;1.60;99.90
22558;DHT22;11445;53.816;8.902;2024-01-16T13:51:03;1.60;99.90
22558;DHT22;11445;53.816;8.902;2024-01-16T13:53:31;1.60;99.90
22558;DHT22;11445;53.816;8.902;2024-01-16T13:56:00;1.60;99.90
22558;DHT22;11445;53.816;8.902;2024-01-16T13:58:27;1.60;99.90
22558;DHT22;11445;53.816;8.902;2024-01-16T14:00:54;1.60;99.90
22558;DHT22;11445;53.816;8.902;2024-01-16T14:03:20;1.60;99.90
22558;DHT22;11445;53.816;8.902;2024-01-16T14:05:47;1.60;99.90
22558;DHT22;11445;53.816;8.902;2024-01-16T14:08:14;1.60;99.90
22558;DHT22;11445;53.816;8.902;2024-01-16T14:10:42;1.60;99.90
22558;DHT22;11445;53.816;8.902;2024-01-16T14:13:09;1.50;99.90
22558;DHT22;11445;53.816;8.902;2024-01-16T14:15:36;1.60;99.90
22558;DHT22;11445;53.816;8.902;2024-01-16T14:18:03;1.60;99.90
22558;DHT22;11445;53.816;8.902;2024-01-16T14:20:30;1.60;99.90
22558;DHT22;11445;53.816;8.902;2024-01-16T14:22:57;1.60;99.90
22558;DHT22;11445;53.816;8.902;2024-01-16T14:25:24;1.50;99.90
22558;DHT22;11445;53.816;8.902;2024-01-16T14:27:58;1.50;99.90
22558;DHT22;11445;53.816;8.902;2024-01-16T14:30:26;1.50;99.90
22558;DHT22;11445;53.816;8.902;2024-01-16T14:32:53;1.50;99.90
22558;DHT22;11445;53.816;8.902;2024-01-16T14:35:22;1.40;99.90
22558;DHT22;11445;53.816;8.902;2024-01-16T14:37:49;1.40;99.90
22558;DHT22;11445;53.816;8.902;2024-01-16T14:40:16;1.40;99.90
22558;DHT22;11445;53.816;8.902;2024-01-16T14:42:46;1.40;99.90
22558;DHT22;11445;53.816;8.902;2024-01-16T14:45:15;1.40;99.90
22558;DHT22;11445;53.816;8.902;2024-01-16T14:47:42;1.40;99.90
22558;DHT22;11445;53.816;8.902;2024-01-16T14:50:11;1.30;99.90
22558;DHT22;11445;53.816;8.902;2024-01-16T14:52:39;1.30;99.90
22558;DHT22;11445;53.816;8.902;2024-01-16T14:55:07;1.30;99.90
22558;DHT22;11445;53.816;8.902;2024-01-16T14:57:34;1.30;99.90
22558;DHT22;11445;53.816;8.902;2024-01-16T15:00:08;1.30;99.90
22558;DHT22;11445;53.816;8.902;2024-01-16T15:02:42;1.30;99.90
22558;DHT22;11445;53.816;8.902;2024-01-16T15:05:09;1.30;99.90
22558;DHT22;11445;53.816;8.902;2024-01-16T15:07:38;1.30;99.90
22558;DHT22;11445;53.816;8.902;2024-01-16T15:10:06;1.30;99.90
22558;DHT22;11445;53.816;8.902;2024-01-16T15:12:35;1.20;99.90
22558;DHT22;11445;53.816;8.902;2024-01-16T15:15:01;1.20;99.90
22558;DHT22;11445;53.816;8.902;2024-01-16T15:17:29;1.20;99.90
22558;DHT22;11445;53.816;8.902;2024-01-16T15:19:58;1.20;99.90
22558;DHT22;11445;53.816;8.902;2024-01-16T15:22:25;1.20;99.90
22558;DHT22;11445;53.816;8.902;2024-01-16T15:24:52;1.20;99.90
22558;DHT22;11445;53.816;8.902;2024-01-16T15:27:19;1.20;99.90
22558;DHT22;11445;53.816;8.902;2024-01-16T15:29:47;1.20;99.90
22558;DHT22;11445;53.816;8.902;2024-01-16T15:32:15;1.10;99.90
22558;DHT22;11445;53.816;8.902;2024-01-16T15:34:42;1.20;99.90
22558;DHT22;11445;53.816;8.902;2024-01-16T15:37:10;1.10;99.90
22558;DHT22;11445;53.816;8.902;2024-01-16T15:39:37;1.10;99.90
22558;DHT22;11445;53.816;8.902;2024-01-16T15:42:04;1.10;99.90
22558;DHT22;11445;53.816;8.902;2024-01-16T15:44:32;1.10;99.90
22558;DHT22;11445;53.816;8.902;2024-01-16T15:47:00;1.10;99.90